sensor_id;sensor_type;location;lat;lon;timestamp;P1;durP1;ratioP1;P2;durP2;ratioP2
20830;SDS011;10576;53.556;9.868;2023-07-20T00:01:45;371.27;;;142.13;;
20830;SDS011;10576;53.556;9.868;2023-07-20T00:04:11;373.15;;;141.48;;
20830;SDS011;10576;53.556;9.868;2023-07-20T00:06:38;373.33;;;141.85;;
20830;SDS011;10576;53.556;9.868;2023-07-20T00:09:05;374.27;;;142.90;;
20830;SDS011;10576;53.556;9.868;2023-07-20T00:11:35;373.65;;;143.13;;
20830;SDS011;10576;53.556;9.868;2023-07-20T00:14:05;377.13;;;146.52;;
20830;SDS011;10576;53.556;9.868;2023-07-20T00:16:31;381.27;;;150.50;;
20830;SDS011;10576;53.556;9.868;2023-07-20T00:18:57;382.52;;;152.02;;
20830;SDS011;10576;53.556;9.868;2023-07-20T00:21:23;386.40;;;154.82;;
20830;SDS011;10576;53.556;9.868;2023-07-20T00:23:49;383.50;;;150.25;;
20830;SDS011;10576;53.556;9.868;2023-07-20T00:26:14;381.40;;;148.60;;
20830;SDS011;10576;53.556;9.868;2023-07-20T00:28:40;382.97;;;149.43;;
20830;SDS011;10576;53.556;9.868;2023-07-20T00:31:06;387.73;;;154.40;;
20830;SDS011;10576;53.556;9.868;2023-07-20T00:33:31;377.50;;;147.60;;
20830;SDS011;10576;53.556;9.868;2023-07-20T00:35:57;387.30;;;154.80;;
20830;SDS011;10576;53.556;9.868;2023-07-20T00:38:23;381.70;;;150.53;;
20830;SDS011;10576;53.556;9.868;2023-07-20T00:40:48;386.73;;;158.03;;
20830;SDS011;10576;53.556;9.868;2023-07-20T00:43:14;380.77;;;148.63;;
20830;SDS011;10576;53.556;9.868;2023-07-20T00:45:40;377.58;;;148.82;;
20830;SDS011;10576;53.556;9.868;2023-07-20T00:48:06;376.52;;;147.23;;
20830;SDS011;10576;53.556;9.868;2023-07-20T00:50:33;379.25;;;147.65;;
20830;SDS011;10576;53.556;9.868;2023-07-20T00:52:59;381.05;;;151.52;;
20830;SDS011;10576;53.556;9.868;2023-07-20T00:55:25;379.10;;;148.55;;
20830;SDS011;10576;53.556;9.868;2023-07-20T00:57:51;384.77;;;152.68;;
20830;SDS011;10576;53.556;9.868;2023-07-20T01:00:18;378.23;;;148.52;;
20830;SDS011;10576;53.556;9.868;2023-07-20T01:02:43;377.50;;;147.83;;
20830;SDS011;10576;53.556;9.868;2023-07-20T01:05:09;373.70;;;141.32;;
20830;SDS011;10576;53.556;9.868;2023-07-20T01:07:54;382.65;;;154.07;;
20830;SDS011;10576;53.556;9.868;2023-07-20T01:13:04;383.73;;;155.20;;
20830;SDS011;10576;53.556;9.868;2023-07-20T01:15:33;380.13;;;149.25;;
20830;SDS011;10576;53.556;9.868;2023-07-20T01:17:59;369.75;;;139.73;;
20830;SDS011;10576;53.556;9.868;2023-07-20T01:20:26;371.00;;;142.93;;
20830;SDS011;10576;53.556;9.868;2023-07-20T01:32:08;372.15;;;140.98;;
20830;SDS011;10576;53.556;9.868;2023-07-20T01:34:35;378.25;;;148.85;;
20830;SDS011;10576;53.556;9.868;2023-07-20T01:37:02;376.38;;;146.95;;
20830;SDS011;10576;53.556;9.868;2023-07-20T01:39:30;380.20;;;148.63;;
20830;SDS011;10576;53.556;9.868;2023-07-20T01:41:57;383.05;;;153.05;;
20830;SDS011;10576;53.556;9.868;2023-07-20T01:44:23;377.52;;;148.82;;
20830;SDS011;10576;53.556;9.868;2023-07-20T01:46:49;381.95;;;149.18;;
20830;SDS011;10576;53.556;9.868;2023-07-20T01:49:14;374.02;;;142.32;;
20830;SDS011;10576;53.556;9.868;2023-07-20T01:51:40;373.83;;;144.38;;
20830;SDS011;10576;53.556;9.868;2023-07-20T01:54:06;387.35;;;157.23;;
20830;SDS011;10576;53.556;9.868;2023-07-20T01:56:31;376.83;;;148.27;;
20830;SDS011;10576;53.556;9.868;2023-07-20T01:58:59;379.30;;;149.70;;
20830;SDS011;10576;53.556;9.868;2023-07-20T02:01:25;371.45;;;142.23;;
20830;SDS011;10576;53.556;9.868;2023-07-20T02:03:53;371.25;;;139.77;;
20830;SDS011;10576;53.556;9.868;2023-07-20T02:06:19;376.88;;;148.15;;
20830;SDS011;10576;53.556;9.868;2023-07-20T02:08:45;378.50;;;147.85;;
20830;SDS011;10576;53.556;9.868;2023-07-20T02:11:11;383.17;;;151.65;;
20830;SDS011;10576;53.556;9.868;2023-07-20T02:13:36;385.33;;;152.20;;
20830;SDS011;10576;53.556;9.868;2023-07-20T02:16:02;380.35;;;150.18;;
20830;SDS011;10576;53.556;9.868;2023-07-20T02:18:27;374.75;;;147.68;;
20830;SDS011;10576;53.556;9.868;2023-07-20T02:20:53;385.63;;;153.27;;
20830;SDS011;10576;53.556;9.868;2023-07-20T02:23:19;385.50;;;155.52;;
20830;SDS011;10576;53.556;9.868;2023-07-20T02:25:45;388.65;;;156.27;;
20830;SDS011;10576;53.556;9.868;2023-07-20T02:28:12;382.48;;;154.10;;
20830;SDS011;10576;53.556;9.868;2023-07-20T02:30:39;387.58;;;156.85;;
20830;SDS011;10576;53.556;9.868;2023-07-20T02:33:05;383.13;;;149.77;;
20830;SDS011;10576;53.556;9.868;2023-07-20T02:35:31;378.67;;;144.03;;
20830;SDS011;10576;53.556;9.868;2023-07-20T02:37:57;378.35;;;147.68;;
20830;SDS011;10576;53.556;9.868;2023-07-20T02:40:23;376.48;;;147.07;;
20830;SDS011;10576;53.556;9.868;2023-07-20T02:42:48;380.42;;;147.70;;
20830;SDS011;10576;53.556;9.868;2023-07-20T02:45:14;383.98;;;150.68;;
20830;SDS011;10576;53.556;9.868;2023-07-20T02:47:40;383.40;;;151.32;;
20830;SDS011;10576;53.556;9.868;2023-07-20T02:50:08;376.88;;;145.50;;
20830;SDS011;10576;53.556;9.868;2023-07-20T02:52:34;375.10;;;142.32;;
20830;SDS011;10576;53.556;9.868;2023-07-20T02:55:00;379.63;;;148.43;;
20830;SDS011;10576;53.556;9.868;2023-07-20T02:57:25;375.33;;;144.90;;
20830;SDS011;10576;53.556;9.868;2023-07-20T02:59:52;383.03;;;152.53;;
20830;SDS011;10576;53.556;9.868;2023-07-20T03:02:17;379.57;;;148.97;;
20830;SDS011;10576;53.556;9.868;2023-07-20T03:04:43;375.83;;;144.90;;
20830;SDS011;10576;53.556;9.868;2023-07-20T03:07:08;370.33;;;139.33;;
20830;SDS011;10576;53.556;9.868;2023-07-20T03:09:34;370.90;;;140.40;;
20830;SDS011;10576;53.556;9.868;2023-07-20T03:11:59;380.02;;;147.10;;
20830;SDS011;10576;53.556;9.868;2023-07-20T03:14:26;374.67;;;145.10;;
20830;SDS011;10576;53.556;9.868;2023-07-20T03:16:52;373.55;;;144.75;;
20830;SDS011;10576;53.556;9.868;2023-07-20T03:19:17;377.95;;;146.00;;
20830;SDS011;10576;53.556;9.868;2023-07-20T03:21:43;372.43;;;139.77;;
20830;SDS011;10576;53.556;9.868;2023-07-20T03:24:08;370.97;;;140.57;;
20830;SDS011;10576;53.556;9.868;2023-07-20T03:26:34;374.40;;;143.02;;
20830;SDS011;10576;53.556;9.868;2023-07-20T03:29:01;375.73;;;149.70;;
20830;SDS011;10576;53.556;9.868;2023-07-20T03:31:26;390.37;;;157.00;;
20830;SDS011;10576;53.556;9.868;2023-07-20T03:33:52;381.50;;;150.33;;
20830;SDS011;10576;53.556;9.868;2023-07-20T03:36:18;380.43;;;146.00;;
20830;SDS011;10576;53.556;9.868;2023-07-20T03:38:43;379.83;;;147.37;;
20830;SDS011;10576;53.556;9.868;2023-07-20T03:41:09;377.70;;;148.10;;
20830;SDS011;10576;53.556;9.868;2023-07-20T03:43:37;389.55;;;159.23;;
20830;SDS011;10576;53.556;9.868;2023-07-20T03:46:02;373.13;;;144.98;;
20830;SDS011;10576;53.556;9.868;2023-07-20T03:48:32;375.90;;;145.77;;
20830;SDS011;10576;53.556;9.868;2023-07-20T03:50:58;378.17;;;148.25;;
20830;SDS011;10576;53.556;9.868;2023-07-20T03:53:25;383.25;;;148.90;;
20830;SDS011;10576;53.556;9.868;2023-07-20T03:55:51;373.08;;;142.32;;
20830;SDS011;10576;53.556;9.868;2023-07-20T03:58:18;379.42;;;147.07;;
20830;SDS011;10576;53.556;9.868;2023-07-20T04:00:45;375.60;;;145.18;;
20830;SDS011;10576;53.556;9.868;2023-07-20T04:03:12;372.30;;;144.55;;
20830;SDS011;10576;53.556;9.868;2023-07-20T04:05:38;382.00;;;151.65;;
20830;SDS011;10576;53.556;9.868;2023-07-20T04:08:04;379.13;;;145.63;;
20830;SDS011;10576;53.556;9.868;2023-07-20T04:10:29;386.87;;;156.23;;
20830;SDS011;10576;53.556;9.868;2023-07-20T04:12:55;385.03;;;154.07;;
20830;SDS011;10576;53.556;9.868;2023-07-20T04:15:21;388.35;;;156.73;;
20830;SDS011;10576;53.556;9.868;2023-07-20T04:17:46;383.10;;;151.33;;
20830;SDS011;10576;53.556;9.868;2023-07-20T04:20:12;373.30;;;145.47;;
20830;SDS011;10576;53.556;9.868;2023-07-20T04:22:38;387.07;;;154.37;;
20830;SDS011;10576;53.556;9.868;2023-07-20T04:25:03;394.08;;;162.52;;
20830;SDS011;10576;53.556;9.868;2023-07-20T04:27:29;393.25;;;160.57;;
20830;SDS011;10576;53.556;9.868;2023-07-20T04:29:55;387.83;;;154.70;;
20830;SDS011;10576;53.556;9.868;2023-07-20T04:32:22;389.70;;;159.23;;
20830;SDS011;10576;53.556;9.868;2023-07-20T04:34:48;397.55;;;163.77;;
20830;SDS011;10576;53.556;9.868;2023-07-20T04:37:14;392.33;;;164.27;;
20830;SDS011;10576;53.556;9.868;2023-07-20T04:39:40;384.13;;;155.15;;
20830;SDS011;10576;53.556;9.868;2023-07-20T04:42:05;381.35;;;154.40;;
20830;SDS011;10576;53.556;9.868;2023-07-20T04:44:31;387.58;;;156.85;;
20830;SDS011;10576;53.556;9.868;2023-07-20T04:46:57;372.33;;;146.00;;
20830;SDS011;10576;53.556;9.868;2023-07-20T04:49:23;375.95;;;148.35;;
20830;SDS011;10576;53.556;9.868;2023-07-20T04:51:49;379.95;;;150.55;;
20830;SDS011;10576;53.556;9.868;2023-07-20T04:54:14;377.87;;;148.10;;
20830;SDS011;10576;53.556;9.868;2023-07-20T04:56:42;379.55;;;156.07;;
20830;SDS011;10576;53.556;9.868;2023-07-20T04:59:07;375.98;;;148.98;;
20830;SDS011;10576;53.556;9.868;2023-07-20T05:01:33;384.00;;;156.20;;
20830;SDS011;10576;53.556;9.868;2023-07-20T05:03:58;376.58;;;152.65;;
20830;SDS011;10576;53.556;9.868;2023-07-20T05:06:24;382.63;;;153.88;;
20830;SDS011;10576;53.556;9.868;2023-07-20T05:08:50;377.33;;;148.20;;
20830;SDS011;10576;53.556;9.868;2023-07-20T05:11:16;387.27;;;165.77;;
20830;SDS011;10576;53.556;9.868;2023-07-20T05:13:42;385.03;;;157.13;;
20830;SDS011;10576;53.556;9.868;2023-07-20T05:16:07;378.57;;;151.10;;
20830;SDS011;10576;53.556;9.868;2023-07-20T05:18:33;384.38;;;156.93;;
20830;SDS011;10576;53.556;9.868;2023-07-20T05:20:58;385.88;;;161.55;;
20830;SDS011;10576;53.556;9.868;2023-07-20T05:23:24;387.00;;;163.05;;
20830;SDS011;10576;53.556;9.868;2023-07-20T05:25:57;381.13;;;151.90;;
20830;SDS011;10576;53.556;9.868;2023-07-20T05:28:23;384.30;;;155.93;;
20830;SDS011;10576;53.556;9.868;2023-07-20T05:30:50;391.00;;;162.75;;
20830;SDS011;10576;53.556;9.868;2023-07-20T05:33:19;383.10;;;152.85;;
20830;SDS011;10576;53.556;9.868;2023-07-20T05:35:45;373.70;;;145.27;;
20830;SDS011;10576;53.556;9.868;2023-07-20T05:38:11;384.33;;;155.30;;
20830;SDS011;10576;53.556;9.868;2023-07-20T05:40:40;375.80;;;151.23;;
20830;SDS011;10576;53.556;9.868;2023-07-20T05:43:07;377.67;;;149.10;;
20830;SDS011;10576;53.556;9.868;2023-07-20T05:45:33;378.58;;;151.60;;
20830;SDS011;10576;53.556;9.868;2023-07-20T05:47:58;380.73;;;155.67;;
20830;SDS011;10576;53.556;9.868;2023-07-20T05:50:24;381.23;;;156.30;;
20830;SDS011;10576;53.556;9.868;2023-07-20T05:52:52;377.60;;;151.60;;
20830;SDS011;10576;53.556;9.868;2023-07-20T05:55:18;380.85;;;159.65;;
20830;SDS011;10576;53.556;9.868;2023-07-20T05:57:44;391.42;;;166.13;;
20830;SDS011;10576;53.556;9.868;2023-07-20T06:00:09;389.30;;;163.35;;
20830;SDS011;10576;53.556;9.868;2023-07-20T06:02:35;387.10;;;162.77;;
20830;SDS011;10576;53.556;9.868;2023-07-20T06:05:01;386.73;;;161.23;;
20830;SDS011;10576;53.556;9.868;2023-07-20T06:07:29;383.00;;;160.70;;
20830;SDS011;10576;53.556;9.868;2023-07-20T06:09:54;388.10;;;166.47;;
20830;SDS011;10576;53.556;9.868;2023-07-20T06:12:20;387.90;;;166.90;;
20830;SDS011;10576;53.556;9.868;2023-07-20T06:14:45;393.70;;;174.85;;
20830;SDS011;10576;53.556;9.868;2023-07-20T06:17:11;385.45;;;164.82;;
20830;SDS011;10576;53.556;9.868;2023-07-20T06:19:37;388.60;;;171.10;;
20830;SDS011;10576;53.556;9.868;2023-07-20T06:22:02;385.13;;;166.32;;
20830;SDS011;10576;53.556;9.868;2023-07-20T06:24:28;382.30;;;160.80;;
20830;SDS011;10576;53.556;9.868;2023-07-20T06:26:54;384.77;;;164.27;;
20830;SDS011;10576;53.556;9.868;2023-07-20T06:29:19;387.73;;;166.80;;
20830;SDS011;10576;53.556;9.868;2023-07-20T06:31:45;388.77;;;169.80;;
20830;SDS011;10576;53.556;9.868;2023-07-20T06:34:10;382.63;;;166.40;;
20830;SDS011;10576;53.556;9.868;2023-07-20T06:36:36;393.60;;;180.87;;
20830;SDS011;10576;53.556;9.868;2023-07-20T06:39:02;386.37;;;172.07;;
20830;SDS011;10576;53.556;9.868;2023-07-20T06:41:27;381.05;;;165.75;;
20830;SDS011;10576;53.556;9.868;2023-07-20T06:43:53;390.07;;;171.60;;
20830;SDS011;10576;53.556;9.868;2023-07-20T06:46:23;378.48;;;158.20;;
20830;SDS011;10576;53.556;9.868;2023-07-20T06:48:49;385.30;;;166.52;;
20830;SDS011;10576;53.556;9.868;2023-07-20T06:51:15;392.27;;;177.55;;
20830;SDS011;10576;53.556;9.868;2023-07-20T06:53:41;392.17;;;176.60;;
20830;SDS011;10576;53.556;9.868;2023-07-20T06:56:07;383.17;;;164.00;;
20830;SDS011;10576;53.556;9.868;2023-07-20T06:58:32;390.63;;;171.23;;
20830;SDS011;10576;53.556;9.868;2023-07-20T07:00:58;383.23;;;162.15;;
20830;SDS011;10576;53.556;9.868;2023-07-20T07:03:24;387.33;;;170.33;;
20830;SDS011;10576;53.556;9.868;2023-07-20T07:05:49;393.27;;;174.97;;
20830;SDS011;10576;53.556;9.868;2023-07-20T07:08:15;386.40;;;164.93;;
20830;SDS011;10576;53.556;9.868;2023-07-20T07:10:41;388.43;;;171.63;;
20830;SDS011;10576;53.556;9.868;2023-07-20T07:13:08;386.27;;;166.63;;
20830;SDS011;10576;53.556;9.868;2023-07-20T07:15:33;375.80;;;157.23;;
20830;SDS011;10576;53.556;9.868;2023-07-20T07:17:59;378.77;;;161.13;;
20830;SDS011;10576;53.556;9.868;2023-07-20T07:20:25;379.50;;;160.90;;
20830;SDS011;10576;53.556;9.868;2023-07-20T07:22:51;383.67;;;168.23;;
20830;SDS011;10576;53.556;9.868;2023-07-20T07:25:17;387.67;;;171.25;;
20830;SDS011;10576;53.556;9.868;2023-07-20T07:27:43;390.73;;;176.00;;
20830;SDS011;10576;53.556;9.868;2023-07-20T07:30:09;387.83;;;174.10;;
20830;SDS011;10576;53.556;9.868;2023-07-20T07:32:34;385.75;;;169.93;;
20830;SDS011;10576;53.556;9.868;2023-07-20T07:35:01;385.65;;;173.05;;
20830;SDS011;10576;53.556;9.868;2023-07-20T07:37:26;383.63;;;173.00;;
20830;SDS011;10576;53.556;9.868;2023-07-20T07:39:52;387.38;;;173.85;;
20830;SDS011;10576;53.556;9.868;2023-07-20T07:42:18;391.55;;;176.23;;
20830;SDS011;10576;53.556;9.868;2023-07-20T07:44:44;391.67;;;176.38;;
20830;SDS011;10576;53.556;9.868;2023-07-20T07:47:10;383.38;;;167.80;;
20830;SDS011;10576;53.556;9.868;2023-07-20T07:49:37;385.08;;;170.88;;
20830;SDS011;10576;53.556;9.868;2023-07-20T07:52:02;392.02;;;179.50;;
20830;SDS011;10576;53.556;9.868;2023-07-20T07:54:28;399.00;;;186.27;;
20830;SDS011;10576;53.556;9.868;2023-07-20T07:56:54;397.00;;;188.00;;
20830;SDS011;10576;53.556;9.868;2023-07-20T07:59:20;393.93;;;189.70;;
20830;SDS011;10576;53.556;9.868;2023-07-20T08:01:47;390.30;;;182.43;;
20830;SDS011;10576;53.556;9.868;2023-07-20T08:04:13;397.87;;;192.27;;
20830;SDS011;10576;53.556;9.868;2023-07-20T08:06:39;402.20;;;198.37;;
20830;SDS011;10576;53.556;9.868;2023-07-20T08:09:04;386.95;;;179.25;;
20830;SDS011;10576;53.556;9.868;2023-07-20T08:11:30;394.80;;;191.17;;
20830;SDS011;10576;53.556;9.868;2023-07-20T08:13:58;387.58;;;180.25;;
20830;SDS011;10576;53.556;9.868;2023-07-20T08:16:27;393.20;;;187.15;;
20830;SDS011;10576;53.556;9.868;2023-07-20T08:18:53;400.13;;;196.13;;
20830;SDS011;10576;53.556;9.868;2023-07-20T08:21:19;398.40;;;198.93;;
20830;SDS011;10576;53.556;9.868;2023-07-20T08:23:45;405.00;;;209.27;;
20830;SDS011;10576;53.556;9.868;2023-07-20T08:26:11;390.55;;;197.35;;
20830;SDS011;10576;53.556;9.868;2023-07-20T08:28:36;402.27;;;213.00;;
20830;SDS011;10576;53.556;9.868;2023-07-20T08:31:02;394.70;;;206.07;;
20830;SDS011;10576;53.556;9.868;2023-07-20T08:33:31;391.88;;;203.50;;
20830;SDS011;10576;53.556;9.868;2023-07-20T08:35:58;393.15;;;206.70;;
20830;SDS011;10576;53.556;9.868;2023-07-20T08:38:24;396.23;;;214.43;;
20830;SDS011;10576;53.556;9.868;2023-07-20T08:40:50;390.50;;;201.17;;
20830;SDS011;10576;53.556;9.868;2023-07-20T08:43:18;392.25;;;204.43;;
20830;SDS011;10576;53.556;9.868;2023-07-20T08:45:44;390.17;;;202.63;;
20830;SDS011;10576;53.556;9.868;2023-07-20T08:48:11;394.80;;;201.77;;
20830;SDS011;10576;53.556;9.868;2023-07-20T08:50:37;403.42;;;221.02;;
20830;SDS011;10576;53.556;9.868;2023-07-20T08:53:03;390.50;;;202.80;;
20830;SDS011;10576;53.556;9.868;2023-07-20T08:55:29;398.50;;;216.98;;
20830;SDS011;10576;53.556;9.868;2023-07-20T08:57:57;394.08;;;216.93;;
20830;SDS011;10576;53.556;9.868;2023-07-20T09:00:24;402.50;;;225.30;;
20830;SDS011;10576;53.556;9.868;2023-07-20T09:02:51;395.98;;;224.00;;
20830;SDS011;10576;53.556;9.868;2023-07-20T09:05:19;395.15;;;224.95;;
20830;SDS011;10576;53.556;9.868;2023-07-20T09:07:45;392.77;;;219.27;;
20830;SDS011;10576;53.556;9.868;2023-07-20T09:10:11;400.17;;;231.52;;
20830;SDS011;10576;53.556;9.868;2023-07-20T09:15:05;396.98;;;233.30;;
20830;SDS011;10576;53.556;9.868;2023-07-20T09:17:31;390.10;;;224.47;;
20830;SDS011;10576;53.556;9.868;2023-07-20T09:19:56;405.33;;;242.83;;
20830;SDS011;10576;53.556;9.868;2023-07-20T09:22:29;397.13;;;232.50;;
20830;SDS011;10576;53.556;9.868;2023-07-20T09:24:55;406.83;;;247.23;;
20830;SDS011;10576;53.556;9.868;2023-07-20T09:27:21;399.58;;;228.13;;
20830;SDS011;10576;53.556;9.868;2023-07-20T09:29:53;394.97;;;219.97;;
20830;SDS011;10576;53.556;9.868;2023-07-20T09:32:19;396.88;;;215.52;;
20830;SDS011;10576;53.556;9.868;2023-07-20T09:34:45;401.00;;;215.00;;
20830;SDS011;10576;53.556;9.868;2023-07-20T09:37:11;394.50;;;204.23;;
20830;SDS011;10576;53.556;9.868;2023-07-20T09:39:44;395.42;;;205.73;;
20830;SDS011;10576;53.556;9.868;2023-07-20T09:42:13;396.40;;;201.27;;
20830;SDS011;10576;53.556;9.868;2023-07-20T09:44:39;401.55;;;213.23;;
20830;SDS011;10576;53.556;9.868;2023-07-20T09:47:08;391.88;;;197.98;;
20830;SDS011;10576;53.556;9.868;2023-07-20T09:49:43;398.52;;;213.95;;
20830;SDS011;10576;53.556;9.868;2023-07-20T09:52:09;401.02;;;217.40;;
20830;SDS011;10576;53.556;9.868;2023-07-20T09:54:39;397.10;;;212.93;;
20830;SDS011;10576;53.556;9.868;2023-07-20T09:57:07;396.97;;;213.00;;
20830;SDS011;10576;53.556;9.868;2023-07-20T09:59:37;397.73;;;222.50;;
20830;SDS011;10576;53.556;9.868;2023-07-20T10:02:04;398.87;;;224.77;;
20830;SDS011;10576;53.556;9.868;2023-07-20T10:04:36;399.95;;;226.43;;
20830;SDS011;10576;53.556;9.868;2023-07-20T10:07:04;396.48;;;226.70;;
20830;SDS011;10576;53.556;9.868;2023-07-20T10:09:35;395.30;;;228.90;;
20830;SDS011;10576;53.556;9.868;2023-07-20T10:12:04;406.73;;;242.45;;
20830;SDS011;10576;53.556;9.868;2023-07-20T10:14:31;408.95;;;247.73;;
20830;SDS011;10576;53.556;9.868;2023-07-20T10:17:01;399.77;;;233.50;;
20830;SDS011;10576;53.556;9.868;2023-07-20T10:19:33;399.60;;;231.63;;
20830;SDS011;10576;53.556;9.868;2023-07-20T10:22:06;400.80;;;235.05;;
20830;SDS011;10576;53.556;9.868;2023-07-20T10:24:36;399.13;;;232.43;;
20830;SDS011;10576;53.556;9.868;2023-07-20T10:27:02;393.93;;;227.27;;
20830;SDS011;10576;53.556;9.868;2023-07-20T10:29:28;397.60;;;241.93;;
20830;SDS011;10576;53.556;9.868;2023-07-20T10:31:55;391.00;;;225.68;;
20830;SDS011;10576;53.556;9.868;2023-07-20T10:34:21;388.23;;;224.32;;
20830;SDS011;10576;53.556;9.868;2023-07-20T10:36:47;399.92;;;238.38;;
20830;SDS011;10576;53.556;9.868;2023-07-20T10:39:26;400.30;;;235.73;;
20830;SDS011;10576;53.556;9.868;2023-07-20T10:42:08;397.92;;;227.82;;
20830;SDS011;10576;53.556;9.868;2023-07-20T10:44:38;392.85;;;215.15;;
20830;SDS011;10576;53.556;9.868;2023-07-20T10:47:08;391.45;;;213.27;;
20830;SDS011;10576;53.556;9.868;2023-07-20T10:49:35;395.80;;;226.50;;
20830;SDS011;10576;53.556;9.868;2023-07-20T10:52:25;400.37;;;232.67;;
20830;SDS011;10576;53.556;9.868;2023-07-20T10:54:51;397.47;;;233.77;;
20830;SDS011;10576;53.556;9.868;2023-07-20T10:57:24;400.37;;;244.13;;
20830;SDS011;10576;53.556;9.868;2023-07-20T11:00:06;396.57;;;232.73;;
20830;SDS011;10576;53.556;9.868;2023-07-20T11:02:43;404.35;;;236.57;;
20830;SDS011;10576;53.556;9.868;2023-07-20T11:07:57;401.55;;;231.65;;
20830;SDS011;10576;53.556;9.868;2023-07-20T11:10:23;397.42;;;221.63;;
20830;SDS011;10576;53.556;9.868;2023-07-20T11:13:15;398.90;;;224.10;;
20830;SDS011;10576;53.556;9.868;2023-07-20T11:18:26;395.52;;;216.55;;
20830;SDS011;10576;53.556;9.868;2023-07-20T11:20:52;399.55;;;218.23;;
20830;SDS011;10576;53.556;9.868;2023-07-20T11:23:21;396.70;;;215.73;;
20830;SDS011;10576;53.556;9.868;2023-07-20T11:25:47;398.40;;;217.40;;
20830;SDS011;10576;53.556;9.868;2023-07-20T11:28:13;402.27;;;216.93;;
20830;SDS011;10576;53.556;9.868;2023-07-20T11:30:39;395.27;;;210.60;;
20830;SDS011;10576;53.556;9.868;2023-07-20T11:33:05;405.85;;;219.90;;
20830;SDS011;10576;53.556;9.868;2023-07-20T11:35:36;390.70;;;206.60;;
20830;SDS011;10576;53.556;9.868;2023-07-20T11:38:12;393.95;;;214.77;;
20830;SDS011;10576;53.556;9.868;2023-07-20T11:40:42;389.80;;;214.93;;
20830;SDS011;10576;53.556;9.868;2023-07-20T11:43:09;399.17;;;225.27;;
20830;SDS011;10576;53.556;9.868;2023-07-20T11:45:37;409.10;;;235.57;;
20830;SDS011;10576;53.556;9.868;2023-07-20T11:48:03;404.80;;;231.85;;
20830;SDS011;10576;53.556;9.868;2023-07-20T11:50:29;403.30;;;224.27;;
20830;SDS011;10576;53.556;9.868;2023-07-20T11:52:54;403.60;;;230.50;;
20830;SDS011;10576;53.556;9.868;2023-07-20T11:55:21;408.45;;;242.95;;
20830;SDS011;10576;53.556;9.868;2023-07-20T12:00:32;407.40;;;238.65;;
20830;SDS011;10576;53.556;9.868;2023-07-20T12:02:58;406.85;;;244.00;;
20830;SDS011;10576;53.556;9.868;2023-07-20T12:05:24;409.92;;;246.15;;
20830;SDS011;10576;53.556;9.868;2023-07-20T12:07:51;391.48;;;218.60;;
20830;SDS011;10576;53.556;9.868;2023-07-20T12:10:22;410.52;;;245.68;;
20830;SDS011;10576;53.556;9.868;2023-07-20T12:12:49;410.38;;;248.35;;
20830;SDS011;10576;53.556;9.868;2023-07-20T12:15:25;394.17;;;220.97;;
20830;SDS011;10576;53.556;9.868;2023-07-20T12:17:52;395.48;;;225.10;;
20830;SDS011;10576;53.556;9.868;2023-07-20T12:22:55;402.40;;;227.05;;
20830;SDS011;10576;53.556;9.868;2023-07-20T12:25:22;395.60;;;213.65;;
20830;SDS011;10576;53.556;9.868;2023-07-20T12:27:47;403.27;;;225.60;;
20830;SDS011;10576;53.556;9.868;2023-07-20T12:30:13;394.50;;;219.20;;
20830;SDS011;10576;53.556;9.868;2023-07-20T12:32:39;400.13;;;225.10;;
20830;SDS011;10576;53.556;9.868;2023-07-20T12:35:05;392.17;;;214.10;;
20830;SDS011;10576;53.556;9.868;2023-07-20T12:37:31;394.42;;;211.82;;
20830;SDS011;10576;53.556;9.868;2023-07-20T12:39:57;393.15;;;217.85;;
20830;SDS011;10576;53.556;9.868;2023-07-20T12:42:23;396.63;;;219.98;;
20830;SDS011;10576;53.556;9.868;2023-07-20T12:44:49;397.03;;;223.33;;
20830;SDS011;10576;53.556;9.868;2023-07-20T12:47:15;392.40;;;221.30;;
20830;SDS011;10576;53.556;9.868;2023-07-20T12:49:42;394.33;;;221.50;;
20830;SDS011;10576;53.556;9.868;2023-07-20T12:52:10;393.20;;;222.50;;
20830;SDS011;10576;53.556;9.868;2023-07-20T12:54:36;401.80;;;239.23;;
20830;SDS011;10576;53.556;9.868;2023-07-20T12:57:01;395.60;;;221.03;;
20830;SDS011;10576;53.556;9.868;2023-07-20T12:59:28;397.80;;;229.90;;
20830;SDS011;10576;53.556;9.868;2023-07-20T13:01:54;399.92;;;228.70;;
20830;SDS011;10576;53.556;9.868;2023-07-20T13:04:19;392.15;;;218.82;;
20830;SDS011;10576;53.556;9.868;2023-07-20T13:06:45;397.15;;;229.40;;
20830;SDS011;10576;53.556;9.868;2023-07-20T13:09:11;399.80;;;237.37;;
20830;SDS011;10576;53.556;9.868;2023-07-20T13:11:36;400.27;;;244.07;;
20830;SDS011;10576;53.556;9.868;2023-07-20T13:14:02;395.35;;;237.13;;
20830;SDS011;10576;53.556;9.868;2023-07-20T13:16:28;399.45;;;243.38;;
20830;SDS011;10576;53.556;9.868;2023-07-20T13:18:54;401.25;;;238.77;;
20830;SDS011;10576;53.556;9.868;2023-07-20T13:21:20;404.48;;;256.38;;
20830;SDS011;10576;53.556;9.868;2023-07-20T13:23:48;408.38;;;255.98;;
20830;SDS011;10576;53.556;9.868;2023-07-20T13:26:15;397.33;;;241.05;;
20830;SDS011;10576;53.556;9.868;2023-07-20T13:28:41;407.70;;;247.65;;
20830;SDS011;10576;53.556;9.868;2023-07-20T13:31:06;403.20;;;246.87;;
20830;SDS011;10576;53.556;9.868;2023-07-20T13:33:33;404.75;;;250.55;;
20830;SDS011;10576;53.556;9.868;2023-07-20T13:36:00;399.90;;;241.73;;
20830;SDS011;10576;53.556;9.868;2023-07-20T13:38:26;408.93;;;253.90;;
20830;SDS011;10576;53.556;9.868;2023-07-20T13:40:51;396.37;;;241.80;;
20830;SDS011;10576;53.556;9.868;2023-07-20T13:43:17;398.27;;;242.63;;
20830;SDS011;10576;53.556;9.868;2023-07-20T13:45:42;401.77;;;249.63;;
20830;SDS011;10576;53.556;9.868;2023-07-20T13:48:08;395.42;;;237.13;;
20830;SDS011;10576;53.556;9.868;2023-07-20T13:50:34;396.87;;;238.60;;
20830;SDS011;10576;53.556;9.868;2023-07-20T13:53:00;395.17;;;229.90;;
20830;SDS011;10576;53.556;9.868;2023-07-20T13:55:27;396.85;;;235.75;;
20830;SDS011;10576;53.556;9.868;2023-07-20T13:57:53;399.23;;;240.40;;
20830;SDS011;10576;53.556;9.868;2023-07-20T14:00:19;397.98;;;237.82;;
20830;SDS011;10576;53.556;9.868;2023-07-20T14:02:45;395.47;;;233.43;;
20830;SDS011;10576;53.556;9.868;2023-07-20T14:05:10;396.90;;;235.13;;
20830;SDS011;10576;53.556;9.868;2023-07-20T14:07:36;395.38;;;235.40;;
20830;SDS011;10576;53.556;9.868;2023-07-20T14:10:02;393.60;;;225.70;;
20830;SDS011;10576;53.556;9.868;2023-07-20T14:12:28;396.95;;;234.07;;
20830;SDS011;10576;53.556;9.868;2023-07-20T14:14:54;395.97;;;231.90;;
20830;SDS011;10576;53.556;9.868;2023-07-20T14:17:20;396.42;;;228.35;;
20830;SDS011;10576;53.556;9.868;2023-07-20T14:19:46;396.45;;;231.20;;